createdAt,value
2023-02-22T00:01:28.218Z,101320.13
2023-02-22T00:04:30.797Z,101312.19
2023-02-22T00:07:35.734Z,101304.97
2023-02-22T00:10:39.467Z,101299.94
2023-02-22T00:13:44.927Z,101302.41
2023-02-22T00:16:47.593Z,101305.25
2023-02-22T00:19:50.747Z,101305.25
2023-02-22T00:22:55.625Z,101300.69
2023-02-22T00:25:59.840Z,101297.06
2023-02-22T00:29:02.460Z,101297.06
2023-02-22T00:32:05.451Z,101295.31
2023-02-22T00:35:09.725Z,101294.47
2023-02-22T00:38:15.496Z,101290.06
2023-02-22T00:41:18.588Z,101282.13
2023-02-22T00:44:21.964Z,101289.41
2023-02-22T00:47:26.332Z,101297.06
2023-02-22T00:50:31.012Z,101294.38
2023-02-22T00:53:34.951Z,101296.28
2023-02-22T00:56:38.285Z,101291.91
2023-02-22T00:59:40.870Z,101294.63
2023-02-22T01:02:44.809Z,101293.59
2023-02-22T01:05:48.010Z,101294.47
2023-02-22T01:08:52.065Z,101285.50
2023-02-22T01:11:56.203Z,101287.34
2023-02-22T01:14:58.889Z,101288.41
2023-02-22T01:18:01.605Z,101289.34
2023-02-22T01:21:04.766Z,101284.16
2023-02-22T01:24:09.105Z,101281.50
2023-02-22T01:27:12.837Z,101290.31
2023-02-22T01:30:16.081Z,101286.88
2023-02-22T01:33:18.823Z,101279.72
2023-02-22T01:36:22.395Z,101283.97
2023-02-22T01:39:26.684Z,101285.69
2023-02-22T01:42:30.194Z,101274.53
2023-02-22T01:45:45.079Z,101275.34
2023-02-22T01:48:50.742Z,101275.00
2023-02-22T01:51:56.922Z,101271.59
2023-02-22T01:55:01.596Z,101274.38
2023-02-22T01:58:06.310Z,101266.50
2023-02-22T02:01:10.223Z,101265.56
2023-02-22T02:04:16.958Z,101262.84
2023-02-22T02:07:22.300Z,101253.25
2023-02-22T02:10:26.406Z,101248.66
2023-02-22T02:13:29.776Z,101248.78
2023-02-22T02:16:38.895Z,101249.78
2023-02-22T02:19:52.303Z,101251.50
2023-02-22T02:23:01.491Z,101240.91
2023-02-22T02:26:45.653Z,101236.16
2023-02-22T02:30:29.999Z,101242.38
2023-02-22T02:33:36.486Z,101238.25
2023-02-22T02:36:45.446Z,101237.47
2023-02-22T02:39:52.601Z,101237.28
2023-02-22T02:43:01.259Z,101236.53
2023-02-22T02:46:08.559Z,101229.41
2023-02-22T02:49:16.468Z,101236.66
2023-02-22T02:52:22.524Z,101231.25
2023-02-22T02:55:25.281Z,101227.66
2023-02-22T02:58:27.916Z,101223.25
2023-02-22T03:01:50.967Z,101214.28
2023-02-22T03:05:08.572Z,101212.44
2023-02-22T03:08:18.004Z,101211.69
2023-02-22T03:11:23.652Z,101208.22
2023-02-22T03:14:36.124Z,101200.25
2023-02-22T03:17:48.581Z,101211.59
2023-02-22T03:21:00.967Z,101199.38
2023-02-22T03:24:11.328Z,101196.91
2023-02-22T03:27:21.433Z,101197.81
2023-02-22T03:30:28.877Z,101197.78
2023-02-22T03:33:36.262Z,101195.88
2023-02-22T03:36:46.474Z,101194.25
2023-02-22T03:39:52.164Z,101195.13
2023-02-22T03:42:59.511Z,101192.31
2023-02-22T03:46:04.154Z,101186.25
2023-02-22T03:49:13.989Z,101191.56
2023-02-22T03:52:18.222Z,101197.53
2023-02-22T03:55:20.839Z,101195.16
2023-02-22T03:58:25.280Z,101192.50
2023-02-22T04:01:27.881Z,101193.22
2023-02-22T04:04:30.545Z,101197.53
2023-02-22T04:07:34.537Z,101195.84
2023-02-22T04:10:37.856Z,101192.97
2023-02-22T04:13:40.455Z,101193.97
2023-02-22T04:16:43.026Z,101194.06
2023-02-22T04:19:45.846Z,101195.94
2023-02-22T04:22:49.786Z,101201.09
2023-02-22T04:25:52.537Z,101209.00
2023-02-22T04:28:55.116Z,101209.78
2023-02-22T04:31:57.790Z,101210.72
2023-02-22T04:35:00.420Z,101204.50
2023-02-22T04:38:04.910Z,101206.03
2023-02-22T04:41:07.495Z,101200.72
2023-02-22T04:44:10.092Z,101202.97
2023-02-22T04:47:12.770Z,101201.28
2023-02-22T04:50:17.167Z,101198.66
2023-02-22T04:53:21.144Z,101191.19
2023-02-22T04:56:24.213Z,101193.03
2023-02-22T04:59:26.996Z,101189.25
2023-02-22T05:02:29.661Z,101190.97
2023-02-22T05:05:32.288Z,101184.34
2023-02-22T05:08:36.242Z,101187.13
2023-02-22T05:11:38.825Z,101192.03
2023-02-22T05:14:41.529Z,101194.94
2023-02-22T05:17:44.135Z,101178.88
2023-02-22T05:20:46.704Z,101180.78
2023-02-22T05:23:50.803Z,101187.75
2023-02-22T05:26:54.209Z,101184.56
2023-02-22T05:29:56.845Z,101185.59
2023-02-22T05:33:00.400Z,101187.38
2023-02-22T05:36:03.012Z,101186.16
2023-02-22T05:39:06.991Z,101185.88
2023-02-22T05:42:09.591Z,101189.47
2023-02-22T05:45:14.802Z,101191.19
2023-02-22T05:48:17.406Z,101183.66
2023-02-22T05:51:20.436Z,101190.78
2023-02-22T05:54:24.470Z,101190.41
2023-02-22T05:57:27.077Z,101184.38
2023-02-22T06:00:31.621Z,101183.56
2023-02-22T06:03:34.285Z,101181.72
2023-02-22T06:06:36.861Z,101179.91
2023-02-22T06:09:40.837Z,101182.44
2023-02-22T06:12:44.288Z,101181.63
2023-02-22T06:15:47.066Z,101181.22
2023-02-22T06:18:49.727Z,101181.03
2023-02-22T06:21:52.809Z,101182.56
2023-02-22T06:24:56.741Z,101180.09
2023-02-22T06:27:59.817Z,101185.22
2023-02-22T06:31:02.477Z,101185.22
2023-02-22T06:34:05.135Z,101187.72
2023-02-22T06:37:07.816Z,101192.31
2023-02-22T06:40:13.825Z,101192.25
2023-02-22T06:43:16.640Z,101192.41
2023-02-22T06:46:21.066Z,101186.16
2023-02-22T06:49:23.866Z,101193.78
2023-02-22T06:52:26.680Z,101189.53
2023-02-22T06:55:33.794Z,101194.16
2023-02-22T06:58:36.390Z,101187.22
2023-02-22T07:01:41.649Z,101196.91
2023-02-22T07:04:46.492Z,101193.03
2023-02-22T07:07:50.716Z,101191.56
2023-02-22T07:10:54.768Z,101193.09
2023-02-22T07:13:57.314Z,101189.25
2023-02-22T07:16:59.926Z,101190.88
2023-02-22T07:20:02.507Z,101199.56
2023-02-22T07:23:05.871Z,101195.75
2023-02-22T07:26:09.840Z,101201.44
2023-02-22T07:29:12.407Z,101191.84
2023-02-22T07:32:15.029Z,101200.59
2023-02-22T07:35:19.286Z,101195.22
2023-02-22T07:38:21.967Z,101197.28
2023-02-22T07:41:26.327Z,101187.34
2023-02-22T07:44:28.911Z,101189.81
2023-02-22T07:47:31.477Z,101183.72
2023-02-22T07:50:36.003Z,101184.50
2023-02-22T07:53:38.612Z,101183.19
2023-02-22T07:56:47.468Z,101189.47
2023-02-22T07:59:50.046Z,101188.06
2023-02-22T08:02:52.828Z,101180.09
2023-02-22T08:05:58.602Z,101179.72
2023-02-22T08:09:01.219Z,101180.00
2023-02-22T08:12:05.537Z,101173.97
2023-02-22T08:15:09.839Z,101176.22
2023-02-22T08:18:14.200Z,101167.94
2023-02-22T08:21:18.332Z,101166.28
2023-02-22T08:24:21.155Z,101168.53
2023-02-22T08:27:26.405Z,101164.56
2023-02-22T08:30:30.777Z,101161.34
2023-02-22T08:33:33.400Z,101164.06
2023-02-22T08:36:36.006Z,101163.63
2023-02-22T08:39:38.726Z,101151.09
2023-02-22T08:42:42.635Z,101157.78
2023-02-22T08:45:45.928Z,101157.31
2023-02-22T08:48:52.116Z,101152.75
2023-02-22T08:51:54.842Z,101152.59
2023-02-22T08:54:57.453Z,101157.25
2023-02-22T08:58:02.872Z,101140.19
2023-02-22T09:01:05.823Z,101152.75
2023-02-22T09:04:08.410Z,101154.50
2023-02-22T09:07:11.360Z,101149.91
2023-02-22T09:10:16.454Z,101153.47
2023-02-22T09:13:20.459Z,101156.19
2023-02-22T09:16:23.154Z,101161.53
2023-02-22T09:19:25.890Z,101159.16
2023-02-22T09:22:28.463Z,101149.63
2023-02-22T09:25:31.216Z,101163.34
2023-02-22T09:28:35.182Z,101157.53
2023-02-22T09:31:38.494Z,101156.31
2023-02-22T09:34:45.720Z,101157.25
2023-02-22T09:37:48.311Z,101148.34
2023-02-22T09:40:54.561Z,101153.47
2023-02-22T09:44:14.471Z,101148.16
2023-02-22T09:47:20.639Z,101146.94
2023-02-22T09:50:26.610Z,101153.56
2023-02-22T09:53:36.034Z,101145.78
2023-02-22T09:56:39.635Z,101149.28
2023-02-22T09:59:47.773Z,101150.53
2023-02-22T10:02:59.639Z,101145.63
2023-02-22T10:06:10.078Z,101147.13
2023-02-22T10:09:12.808Z,101142.34
2023-02-22T10:12:26.183Z,101136.47
2023-02-22T10:15:47.476Z,101127.00
2023-02-22T10:19:08.690Z,101120.88
2023-02-22T10:22:37.824Z,101123.69
2023-02-22T10:25:40.674Z,101115.94
2023-02-22T10:28:46.800Z,101117.09
2023-02-22T10:31:57.715Z,101124.63
2023-02-22T10:35:05.397Z,101115.09
2023-02-22T10:38:16.552Z,101122.28
2023-02-22T10:41:24.756Z,101121.34
2023-02-22T10:44:28.942Z,101106.41
2023-02-22T10:47:34.603Z,101109.25
2023-02-22T10:50:40.775Z,101103.25
2023-02-22T10:53:43.697Z,101102.31
2023-02-22T10:56:49.324Z,101105.13
2023-02-22T10:59:52.300Z,101092.78
2023-02-22T11:02:59.103Z,101096.03
2023-02-22T11:06:19.941Z,101089.00
2023-02-22T11:09:23.317Z,101072.44
2023-02-22T11:12:31.977Z,101074.81
2023-02-22T11:15:35.951Z,101077.66
2023-02-22T11:18:39.961Z,101070.94
2023-02-22T11:21:43.187Z,101066.78
2023-02-22T11:24:50.546Z,101065.94
2023-02-22T11:27:53.957Z,101059.69
2023-02-22T11:30:56.928Z,101050.84
2023-02-22T11:34:03.530Z,101053.34
2023-02-22T11:37:29.525Z,101028.06
2023-02-22T11:40:33.922Z,101030.00
2023-02-22T11:43:37.567Z,101024.72
2023-02-22T11:46:42.759Z,101014.38
2023-02-22T11:49:47.356Z,101011.13
2023-02-22T11:52:54.403Z,101013.84
2023-02-22T11:56:11.939Z,101015.16
2023-02-22T11:59:26.557Z,100997.44
2023-02-22T12:02:56.430Z,100997.59
2023-02-22T12:06:12.324Z,100998.66
2023-02-22T12:09:18.839Z,100989.34
2023-02-22T12:12:40.285Z,100992.91
2023-02-22T12:15:49.690Z,100989.03
2023-02-22T12:19:09.965Z,100987.75
2023-02-22T12:22:21.276Z,100987.88
2023-02-22T12:25:27.832Z,100983.88
2023-02-22T12:28:36.688Z,100986.81
2023-02-22T12:31:45.424Z,100988.53
2023-02-22T12:34:54.223Z,100983.06
2023-02-22T12:38:05.581Z,100977.13
2023-02-22T12:41:14.055Z,100979.63
2023-02-22T12:44:20.514Z,100971.16
2023-02-22T12:47:33.555Z,100965.19
2023-02-22T12:50:38.135Z,100954.38
2023-02-22T12:53:51.717Z,100962.06
2023-02-22T12:57:00.698Z,100954.03
2023-02-22T13:00:12.484Z,100948.50
2023-02-22T13:03:30.087Z,100948.38
2023-02-22T13:06:43.110Z,100950.53
2023-02-22T13:10:00.185Z,100942.94
2023-02-22T13:13:12.307Z,100942.31
2023-02-22T13:16:31.154Z,100942.47
2023-02-22T13:19:41.453Z,100945.19
2023-02-22T13:22:48.775Z,100949.06
2023-02-22T13:25:58.065Z,100946.03
2023-02-22T13:29:05.671Z,100940.38
2023-02-22T13:32:34.363Z,100944.03
2023-02-22T13:35:51.222Z,100935.72
2023-02-22T13:39:27.883Z,100938.03
2023-02-22T13:42:59.676Z,100929.47
2023-02-22T13:46:35.201Z,100930.03
2023-02-22T13:49:54.394Z,100929.91
2023-02-22T13:52:59.063Z,100928.19
2023-02-22T13:56:02.145Z,100923.75
2023-02-22T13:59:06.159Z,100931.25
2023-02-22T14:02:36.683Z,100917.81
2023-02-22T14:05:50.957Z,100912.16
2023-02-22T14:08:53.868Z,100924.19
2023-02-22T14:11:57.018Z,100912.78
2023-02-22T14:15:28.648Z,100926.50
2023-02-22T14:18:37.999Z,100914.22
2023-02-22T14:21:56.730Z,100910.50
2023-02-22T14:24:59.748Z,100907.75
2023-02-22T14:28:03.820Z,100911.38
2023-02-22T14:31:17.453Z,100916.69
2023-02-22T14:34:41.840Z,100920.56
2023-02-22T14:37:51.033Z,100909.91
2023-02-22T14:40:57.228Z,100904.53
2023-02-22T14:44:05.228Z,100908.53
2023-02-22T14:47:20.019Z,100908.97
2023-02-22T14:50:26.183Z,100900.69
2023-02-22T14:53:37.483Z,100904.06
2023-02-22T14:56:44.227Z,100895.72
2023-02-22T15:00:02.341Z,100898.31
2023-02-22T15:03:06.355Z,100890.69
2023-02-22T15:06:16.356Z,100902.47
2023-02-22T15:09:27.670Z,100892.66
2023-02-22T15:12:31.624Z,100895.28
2023-02-22T15:15:34.208Z,100892.34
2023-02-22T15:18:42.384Z,100893.28
2023-02-22T15:21:47.064Z,100891.34
2023-02-22T15:24:59.752Z,100889.00
2023-02-22T15:28:04.292Z,100883.78
2023-02-22T15:31:25.483Z,100890.53
2023-02-22T15:34:31.369Z,100885.69
2023-02-22T15:37:34.002Z,100886.63
2023-02-22T15:40:37.229Z,100888.69
2023-02-22T15:43:40.706Z,100881.06
2023-02-22T15:46:43.334Z,100886.91
2023-02-22T15:50:08.142Z,100886.53
2023-02-22T15:53:27.898Z,100882.28
2023-02-22T15:56:33.897Z,100882.63
2023-02-22T15:59:44.665Z,100866.59
2023-02-22T16:02:47.859Z,100866.66
2023-02-22T16:05:55.605Z,100873.41
2023-02-22T16:09:00.604Z,100865.13
2023-02-22T16:12:11.043Z,100861.22
2023-02-22T16:15:18.855Z,100864.28
2023-02-22T16:18:31.525Z,100870.41
2023-02-22T16:21:53.354Z,100861.34
2023-02-22T16:25:16.595Z,100870.56
2023-02-22T16:28:30.692Z,100868.22
2023-02-22T16:31:35.246Z,100873.19
2023-02-22T16:34:38.076Z,100866.41
2023-02-22T16:37:42.079Z,100875.19
2023-02-22T16:40:50.411Z,100879.03
2023-02-22T16:43:53.055Z,100877.97
2023-02-22T16:46:57.728Z,100878.78
2023-02-22T16:50:00.310Z,100874.25
2023-02-22T16:53:04.244Z,100868.94
2023-02-22T16:56:11.540Z,100876.84
2023-02-22T16:59:16.448Z,100882.84
2023-02-22T17:02:20.378Z,100868.81
2023-02-22T17:05:23.017Z,100875.13
2023-02-22T17:08:27.078Z,100882.22
2023-02-22T17:11:29.664Z,100882.22
2023-02-22T17:14:36.024Z,100882.09
2023-02-22T17:17:38.594Z,100883.59
2023-02-22T17:20:41.273Z,100873.97
2023-02-22T17:23:46.035Z,100876.91
2023-02-22T17:26:48.793Z,100881.69
2023-02-22T17:29:51.417Z,100878.84
2023-02-22T17:32:55.979Z,100882.34
2023-02-22T17:36:01.759Z,100887.25
2023-02-22T17:39:06.514Z,100883.91
2023-02-22T17:42:09.117Z,100887.09
2023-02-22T17:45:13.899Z,100881.00
2023-02-22T17:48:18.077Z,100887.44
2023-02-22T17:51:22.788Z,100886.06
2023-02-22T17:54:26.983Z,100893.34
2023-02-22T17:57:30.116Z,100892.41
2023-02-22T18:00:36.367Z,100889.66
2023-02-22T18:03:40.075Z,100895.06
2023-02-22T18:06:42.683Z,100898.22
2023-02-22T18:09:46.680Z,100900.63
2023-02-22T18:12:49.770Z,100904.22
2023-02-22T18:15:52.948Z,100903.63
2023-02-22T18:18:56.940Z,100913.63
2023-02-22T18:22:00.193Z,100910.28
2023-02-22T18:25:04.256Z,100907.94
2023-02-22T18:28:09.564Z,100907.09
2023-02-22T18:31:15.109Z,100906.78
2023-02-22T18:34:17.843Z,100907.09
2023-02-22T18:37:20.483Z,100904.44
2023-02-22T18:40:24.620Z,100903.25
2023-02-22T18:43:27.828Z,100902.97
2023-02-22T18:46:30.825Z,100900.84
2023-02-22T18:49:33.419Z,100902.72
2023-02-22T18:52:44.630Z,100891.56
2023-02-22T18:55:48.557Z,100891.66
2023-02-22T18:58:54.020Z,100896.66
2023-02-22T19:01:56.630Z,100896.09
2023-02-22T19:05:00.357Z,100885.84
2023-02-22T19:08:04.085Z,100883.28
2023-02-22T19:11:10.283Z,100879.53
2023-02-22T19:14:13.308Z,100881.16
2023-02-22T19:17:16.495Z,100885.59
2023-02-22T19:20:19.582Z,100888.56
2023-02-22T19:23:22.210Z,100885.84
2023-02-22T19:26:29.304Z,100889.16
2023-02-22T19:29:32.253Z,100882.16
2023-02-22T19:32:36.359Z,100874.84
2023-02-22T19:35:47.973Z,100878.78
2023-02-22T19:38:50.809Z,100877.81
2023-02-22T19:41:55.390Z,100877.84
2023-02-22T19:44:57.975Z,100880.22
2023-02-22T19:48:00.582Z,100879.72
2023-02-22T19:51:06.267Z,100872.00
2023-02-22T19:54:15.964Z,100877.81
2023-02-22T19:57:20.143Z,100875.34
2023-02-22T20:00:25.022Z,100869.50
2023-02-22T20:03:28.119Z,100874.91
2023-02-22T20:06:34.695Z,100869.34
2023-02-22T20:09:39.565Z,100872.53
2023-02-22T20:12:43.529Z,100873.13
2023-02-22T20:15:50.651Z,100869.41
2023-02-22T20:18:54.394Z,100868.56
2023-02-22T20:21:57.559Z,100866.72
2023-02-22T20:25:00.161Z,100865.09
2023-02-22T20:28:04.688Z,100870.28
2023-02-22T20:31:11.094Z,100868.38
2023-02-22T20:34:13.647Z,100866.13
2023-02-22T20:37:16.211Z,100865.03
2023-02-22T20:40:19.137Z,100865.50
2023-02-22T20:43:23.058Z,100862.97
2023-02-22T20:46:28.318Z,100861.00
2023-02-22T20:49:30.937Z,100861.13
2023-02-22T20:52:33.544Z,100854.50
2023-02-22T20:55:36.125Z,100857.84
2023-02-22T20:58:40.077Z,100857.78
2023-02-22T21:01:42.998Z,100856.34
2023-02-22T21:04:45.637Z,100851.44
2023-02-22T21:07:48.226Z,100849.97
2023-02-22T21:10:50.834Z,100845.69
2023-02-22T21:13:55.047Z,100847.72
2023-02-22T21:16:57.656Z,100852.38
2023-02-22T21:20:00.313Z,100856.38
2023-02-22T21:23:04.417Z,100854.84
2023-02-22T21:26:07.820Z,100850.75
2023-02-22T21:29:11.871Z,100851.53
2023-02-22T21:32:14.771Z,100848.03
2023-02-22T21:35:17.555Z,100844.91
2023-02-22T21:38:20.689Z,100846.31
2023-02-22T21:41:27.390Z,100841.53
2023-02-22T21:44:31.338Z,100833.00
2023-02-22T21:47:35.743Z,100841.13
2023-02-22T21:50:38.334Z,100839.66
2023-02-22T21:53:45.868Z,100837.25
2023-02-22T21:56:48.825Z,100828.16
2023-02-22T21:59:53.141Z,100830.72
2023-02-22T22:02:59.096Z,100834.44
2023-02-22T22:06:01.744Z,100825.91
2023-02-22T22:09:18.034Z,100830.63
2023-02-22T22:12:26.008Z,100825.78
2023-02-22T22:15:36.871Z,100824.56
2023-02-22T22:18:40.823Z,100824.09
2023-02-22T22:21:43.568Z,100819.13
2023-02-22T22:24:46.161Z,100822.69
2023-02-22T22:27:48.724Z,100827.00
2023-02-22T22:30:53.405Z,100828.69
2023-02-22T22:33:57.152Z,100826.97
2023-02-22T22:36:59.791Z,100831.16
2023-02-22T22:40:04.783Z,100830.72
2023-02-22T22:43:07.729Z,100837.59
2023-02-22T22:46:12.400Z,100833.00
2023-02-22T22:49:15.057Z,100827.69
2023-02-22T22:52:18.926Z,100834.09
2023-02-22T22:55:24.120Z,100828.56
2023-02-22T22:58:26.763Z,100822.63
2023-02-22T23:01:34.030Z,100820.91
2023-02-22T23:04:37.957Z,100826.91
2023-02-22T23:07:40.545Z,100830.81
2023-02-22T23:10:43.194Z,100822.84
2023-02-22T23:13:45.784Z,100824.78
2023-02-22T23:16:50.942Z,100823.88
2023-02-22T23:19:53.544Z,100821.22
2023-02-22T23:22:57.881Z,100821.22
2023-02-22T23:26:11.364Z,100825.63
2023-02-22T23:29:14.008Z,100831.25
2023-02-22T23:32:18.090Z,100828.81
2023-02-22T23:35:20.746Z,100832.50
2023-02-22T23:38:24.184Z,100830.91
2023-02-22T23:41:28.615Z,100834.88
2023-02-22T23:44:31.398Z,100831.44
2023-02-22T23:47:35.826Z,100833.22
2023-02-22T23:50:38.427Z,100832.34
2023-02-22T23:53:45.853Z,100836.72
2023-02-22T23:56:56.224Z,100836.22
